Flight Track Log - Related Links

Times and Time Zones

All times are in EDT time to prevent confusion due to time zone crossing. See the USC105 flight status page for this flight to view local times or setup timezone preferences in your user account.


Time Position Orientation Groundspeed Altitude Reporting Facility
EDT Latitude Longitude Course Direction KTS MPH feet Rate Location/Type
Wed 11:10:22 PM 41.5519 -81.7125 314° West 164 189 1,900  Level Cleveland Center
Wed 11:11:22 PM 41.5831 -81.7544 315° West 155 178 3,000 793 Climbing Cleveland Center
Wed 11:12:23 PM 41.6075 -81.8078 302° West 169 194 3,500 492 Climbing Cleveland Center
Wed 11:13:24 PM 41.6297 -81.8667 297° West 161 185 4,000 645 Climbing Cleveland Center
Wed 11:14:24 PM 41.6456 -81.9253 290° West 177 204 4,800 793 Climbing Cleveland Center
Wed 11:15:25 PM 41.6681 -81.9758 301° West 162 186 5,600 645 Climbing Cleveland Center
Wed 11:16:25 PM 41.6903 -82.0292 299° West 170 196 6,100 198 Climbing Cleveland Center
Wed 11:17:26 PM 41.7122 -82.0936 295° West 192 221 6,000 -49 Descending Cleveland Center
Wed 11:18:27 PM 41.7364 -82.1581 297° West 197 227 6,000  Level Cleveland Center
Wed 11:19:27 PM 41.7583 -82.2283 293° West 205 236 6,000  Level Cleveland Center
Wed 11:20:34 PM 41.7886 -82.3069 297° West 204 235 6,000  Level Cleveland Center
Wed 11:21:34 PM 41.8125 -82.3772 295° West 204 235 6,000  Level Cleveland Center
Wed 11:22:21 PM 41.8325 -82.4281 298° West 204 235 6,000  Level Cleveland Center
Wed 11:23:28 PM 41.8606 -82.5042 296° West 207 238 6,000  Level Cleveland Center
Wed 11:24:41 PM 41.8922 -82.5914 296° West 208 239 6,000  Level Cleveland Center
Wed 11:25:47 PM 41.9222 -82.6622 300° West 206 237 6,000  Level Cleveland Center
Wed 11:26:54 PM 41.9500 -82.7469 294° West 206 237 6,000  Level Cleveland Center
Wed 11:27:55 PM 41.9758 -82.8092 299° West 206 237 6,000  Level Cleveland Center
Wed 11:28:55 PM 42.0014 -82.8828 295° West 206 237 6,000  Level Cleveland Center
Wed 11:29:56 PM 42.0231 -82.9506 293° West 205 236 6,000  Level Cleveland Center
Wed 11:30:57 PM 42.0486 -83.0242 295° West 204 235 6,000 -347 Level Cleveland Center
Wed 11:31:57 PM 42.0847 -83.0872 308° West 219 252 5,300 -446 Descending Cleveland Center
Wed 11:32:58 PM 42.1250 -83.1506 311° West 214 246 5,100 -149 Descending Cleveland Center
Wed 11:33:58 PM 42.1592 -83.2078 309° West 190 219 5,000 -50 Descending Cleveland Center
Wed 11:34:59 PM 42.1892 -83.2622 307° West 183 211 5,000 52 Level Cleveland Center
Wed 11:35:54 PM 42.2172 -83.3111 308° West 177 204 5,100  Climbing Cleveland Center
Wed 11:36:54 PM 42.2453 -83.3628 306° West 168 193 5,000 -645 Descending Cleveland Center
Wed 11:37:55 PM 42.2772 -83.4178 308° West 198 228 3,800 -1,134 Descending Cleveland Center
Wed 11:39:01 PM 42.2906 -83.4658 291° West 159 183 2,600 -1,043 Descending Cleveland Center
Wed 11:39:50 PM 42.2714 -83.4847 216° Southwest 111 128 1,800 -980 Descending Cleveland Center
Wed 11:41:00 PM 42.2333 -83.5167 270° West  Level FlightAware Approximate

Login

Don't have an account? Register now (free) for customized features, flight alerts, and more!